Terminal Aerodrome Forecast
Issued by NWS

Home | Current Version | Previous Version | Text Only | Print | Product List | Glossary On
Versions: 1 2 3 4 5 6 7 8 9 10 11 12 13
733
FTUS45 KVEF 212320
TAFVGT
TAF
KVGT 212320Z 2200/2224 12011KT P6SM SCT100 BKN150
     FM220400 VRB05KT P6SM SCT100 BKN150
     FM221800 14011KT P6SM SCT090 SCT150=

USA.gov is the U.S. government's official web portal to all federal, state and local government web resources and services.